createdAt,value
2018-09-21T00:03:37.774Z,3.03
2018-09-21T00:08:42.290Z,3.17
2018-09-21T00:13:46.778Z,3.30
2018-09-21T00:18:50.830Z,3.40
2018-09-21T00:23:54.014Z,3.10
2018-09-21T00:28:57.282Z,2.83
2018-09-21T00:34:00.454Z,3.17
2018-09-21T00:39:05.587Z,3.47
2018-09-21T00:44:08.831Z,3.40
2018-09-21T00:49:12.038Z,3.70
2018-09-21T00:54:15.231Z,3.50
2018-09-21T00:59:18.411Z,3.53
2018-09-21T01:04:21.586Z,3.67
2018-09-21T01:09:24.779Z,3.90
2018-09-21T01:14:28.026Z,3.10
2018-09-21T01:19:31.279Z,4.27
2018-09-21T01:24:34.525Z,3.93
2018-09-21T01:29:37.794Z,3.63
2018-09-21T01:34:41.010Z,4.00
2018-09-21T01:39:44.230Z,3.77
2018-09-21T01:44:47.466Z,3.70
2018-09-21T01:49:50.678Z,3.80
2018-09-21T01:54:53.983Z,4.50
2018-09-21T01:59:57.275Z,3.80
2018-09-21T02:05:00.478Z,4.10
2018-09-21T02:10:03.726Z,3.90
2018-09-21T02:15:06.970Z,3.63
2018-09-21T02:20:10.220Z,3.80
2018-09-21T02:25:13.442Z,4.33
2018-09-21T02:30:16.682Z,4.07
2018-09-21T02:35:19.915Z,4.63
2018-09-21T02:40:23.122Z,4.27
2018-09-21T02:45:26.351Z,4.90
2018-09-21T02:50:29.610Z,4.10
2018-09-21T02:55:32.834Z,4.10
2018-09-21T03:00:36.123Z,4.07
2018-09-21T03:05:39.342Z,4.03
2018-09-21T03:10:42.545Z,4.00
2018-09-21T03:15:45.794Z,4.23
2018-09-21T03:20:49.099Z,3.93
2018-09-21T03:25:52.415Z,4.83
2018-09-21T03:30:55.714Z,3.93
2018-09-21T03:35:58.928Z,4.77
2018-09-21T03:41:02.203Z,4.93
2018-09-21T03:46:05.743Z,4.40
2018-09-21T03:51:08.962Z,4.20
2018-09-21T03:56:12.193Z,4.00
2018-09-21T04:01:15.483Z,4.17
2018-09-21T04:06:18.741Z,4.10
2018-09-21T04:11:21.967Z,4.00
2018-09-21T04:16:25.203Z,3.97
2018-09-21T04:21:28.482Z,4.07
2018-09-21T04:26:31.694Z,3.80
2018-09-21T04:31:34.881Z,3.53
2018-09-21T04:36:38.071Z,4.10
2018-09-21T04:41:41.310Z,3.77
2018-09-21T04:46:44.503Z,4.17
2018-09-21T04:51:47.774Z,3.97
2018-09-21T04:56:50.973Z,3.90
2018-09-21T05:01:54.200Z,3.90
2018-09-21T05:06:57.397Z,4.20
2018-09-21T05:12:00.570Z,4.20
2018-09-21T05:17:04.158Z,4.77
2018-09-21T05:22:09.025Z,4.77
2018-09-21T05:27:12.246Z,4.67
2018-09-21T05:32:15.466Z,4.67
2018-09-21T05:37:18.684Z,5.00
2018-09-21T05:42:21.922Z,4.23
2018-09-21T05:47:25.223Z,4.93
2018-09-21T05:52:28.446Z,4.67
2018-09-21T05:57:31.670Z,4.30
2018-09-21T06:02:35.151Z,4.40
2018-09-21T06:07:38.447Z,4.77
2018-09-21T06:12:41.642Z,4.80
2018-09-21T06:17:44.858Z,4.40
2018-09-21T06:22:48.164Z,5.10
2018-09-21T06:27:51.417Z,5.00
2018-09-21T06:32:54.735Z,4.53
2018-09-21T06:37:57.919Z,4.90
2018-09-21T06:43:01.138Z,4.73
2018-09-21T06:48:04.353Z,4.80
2018-09-21T06:53:07.569Z,4.80
2018-09-21T06:58:10.786Z,5.00
2018-09-21T07:03:14.008Z,5.10
2018-09-21T07:08:17.192Z,4.40
2018-09-21T07:13:20.474Z,4.00
2018-09-21T07:18:23.695Z,4.43
2018-09-21T07:23:26.928Z,4.67
2018-09-21T07:28:30.521Z,4.83
2018-09-21T07:33:33.767Z,4.60
2018-09-21T07:38:37.044Z,4.37
2018-09-21T07:43:40.289Z,4.17
2018-09-21T07:48:43.576Z,4.20
2018-09-21T07:53:47.790Z,3.83
2018-09-21T07:58:51.043Z,3.90
2018-09-21T08:03:54.305Z,3.30
2018-09-21T08:08:57.544Z,2.63
2018-09-21T08:14:00.782Z,3.30
2018-09-21T08:19:04.346Z,2.60
2018-09-21T08:24:07.553Z,2.33
2018-09-21T08:29:10.837Z,2.93
2018-09-21T08:34:14.090Z,2.50
2018-09-21T08:39:17.355Z,2.73
2018-09-21T08:44:20.570Z,3.20
2018-09-21T08:49:23.911Z,3.37
2018-09-21T08:54:27.158Z,2.63
2018-09-21T08:59:30.361Z,2.77
2018-09-21T09:04:34.425Z,2.53
2018-09-21T09:09:37.667Z,2.50
2018-09-21T09:14:40.918Z,2.80
2018-09-21T09:19:44.163Z,2.00
2018-09-21T09:24:47.390Z,1.10
2018-09-21T09:29:50.659Z,1.50
2018-09-21T09:34:53.887Z,1.13
2018-09-21T09:39:57.247Z,1.40
2018-09-21T09:45:00.519Z,0.77
2018-09-21T09:50:07.378Z,1.00
2018-09-21T09:55:10.586Z,0.77
2018-09-21T10:00:13.774Z,0.83
2018-09-21T10:05:16.983Z,1.00
2018-09-21T10:10:20.317Z,1.30
2018-09-21T10:15:23.514Z,1.40
2018-09-21T10:20:26.730Z,1.17
2018-09-21T10:25:30.406Z,1.23
2018-09-21T10:30:33.602Z,1.33
2018-09-21T10:35:37.048Z,1.10
2018-09-21T10:40:40.234Z,1.13
2018-09-21T10:45:43.468Z,1.00
2018-09-21T10:50:46.751Z,1.30
2018-09-21T10:55:50.005Z,1.60
2018-09-21T11:00:55.716Z,1.63
2018-09-21T11:06:00.435Z,1.73
2018-09-21T11:11:03.760Z,1.77
2018-09-21T11:16:06.993Z,1.70
2018-09-21T11:21:10.216Z,2.07
2018-09-21T11:26:13.502Z,1.97
2018-09-21T11:31:16.751Z,2.37
2018-09-21T11:36:20.618Z,2.10
2018-09-21T11:41:23.818Z,3.70
2018-09-21T11:46:27.510Z,1.93
2018-09-21T11:51:32.543Z,2.10
2018-09-21T11:56:39.966Z,2.67
2018-09-21T12:01:47.520Z,2.63
2018-09-21T12:06:51.018Z,2.73
2018-09-21T12:11:54.286Z,2.53
2018-09-21T12:16:58.557Z,2.30
2018-09-21T12:22:01.803Z,4.13
2018-09-21T12:27:04.979Z,2.73
2018-09-21T12:32:08.231Z,3.23
2018-09-21T12:37:11.551Z,2.63
2018-09-21T12:42:14.879Z,2.00
2018-09-21T12:47:23.830Z,2.00
2018-09-21T12:52:28.138Z,2.77
2018-09-21T12:57:31.371Z,2.80
2018-09-21T13:02:34.612Z,2.87
2018-09-21T13:07:38.919Z,2.20
2018-09-21T13:12:43.387Z,2.10
2018-09-21T13:17:47.010Z,0.97
2018-09-21T13:22:50.286Z,0.80
2018-09-21T13:27:53.567Z,0.83
2018-09-21T13:32:56.941Z,0.70
2018-09-21T13:38:00.651Z,0.70
2018-09-21T13:43:03.874Z,0.50
2018-09-21T13:48:07.097Z,0.70
2018-09-21T13:53:10.366Z,0.50
2018-09-21T13:58:13.546Z,0.50
2018-09-21T14:03:16.885Z,0.40
2018-09-21T14:08:20.403Z,0.53
2018-09-21T14:13:24.723Z,0.57
2018-09-21T14:18:28.012Z,0.77
2018-09-21T14:23:32.239Z,0.50
2018-09-21T14:28:35.701Z,0.60
2018-09-21T14:33:38.970Z,0.40
2018-09-21T14:38:42.206Z,0.67
2018-09-21T14:43:45.619Z,0.60
2018-09-21T14:48:48.918Z,0.23
2018-09-21T14:53:52.150Z,0.27
2018-09-21T14:58:55.526Z,0.37
2018-09-21T15:03:58.786Z,0.30
2018-09-21T15:09:02.066Z,0.40
2018-09-21T15:14:05.413Z,0.23
2018-09-21T15:19:09.144Z,0.20
2018-09-21T15:24:12.416Z,0.40
2018-09-21T15:29:15.648Z,0.20
2018-09-21T15:34:20.962Z,0.23
2018-09-21T15:39:25.235Z,0.30
2018-09-21T15:44:28.505Z,0.57
2018-09-21T15:49:32.845Z,0.33
2018-09-21T15:54:40.472Z,0.20
2018-09-21T16:00:02.939Z,0.50
2018-09-21T16:05:06.346Z,0.57
2018-09-21T16:10:09.761Z,0.43
2018-09-21T16:15:12.978Z,0.47
2018-09-21T16:20:16.207Z,0.70
2018-09-21T16:25:19.462Z,0.60
2018-09-21T16:30:25.994Z,0.30
2018-09-21T16:35:30.440Z,0.83
2018-09-21T16:40:33.700Z,0.37
2018-09-21T16:45:38.247Z,0.60
2018-09-21T16:56:00.299Z,0.43
2018-09-21T17:01:05.359Z,0.40
2018-09-21T17:06:09.236Z,0.30
2018-09-21T17:11:12.583Z,0.30
2018-09-21T17:16:15.858Z,0.50
2018-09-21T17:21:19.201Z,0.37
2018-09-21T17:26:22.573Z,0.67
2018-09-21T17:31:26.058Z,0.30
2018-09-21T17:36:34.145Z,0.37
2018-09-21T17:41:37.483Z,0.90
2018-09-21T17:46:40.873Z,0.50
2018-09-21T17:51:44.190Z,0.27
2018-09-21T17:56:47.480Z,0.43
2018-09-21T18:01:50.730Z,0.37
2018-09-21T18:06:54.414Z,0.40
2018-09-21T18:11:58.494Z,0.50
2018-09-21T18:17:01.780Z,0.30
2018-09-21T18:22:09.721Z,0.47
2018-09-21T18:27:13.006Z,0.80
2018-09-21T18:32:16.258Z,0.60
2018-09-21T18:37:19.540Z,0.30
2018-09-21T18:42:22.830Z,0.67
2018-09-21T18:47:26.085Z,0.50
2018-09-21T18:52:29.338Z,0.50
2018-09-21T18:57:32.582Z,0.83
2018-09-21T19:02:35.823Z,1.00
2018-09-21T19:07:39.070Z,0.60
2018-09-21T19:12:42.343Z,0.67
2018-09-21T19:17:46.215Z,0.40
2018-09-21T19:22:49.461Z,0.53
2018-09-21T19:27:52.779Z,0.60
2018-09-21T19:32:56.085Z,0.70
2018-09-21T19:37:59.233Z,0.70
2018-09-21T19:43:02.583Z,0.70
2018-09-21T19:48:06.012Z,0.90
2018-09-21T19:53:09.258Z,0.70
2018-09-21T19:58:12.435Z,0.77
2018-09-21T20:03:19.390Z,0.87
2018-09-21T20:08:22.613Z,0.90
2018-09-21T20:13:25.957Z,0.70
2018-09-21T20:18:29.202Z,1.03
2018-09-21T20:23:43.034Z,0.70
2018-09-21T20:28:46.306Z,0.90
2018-09-21T20:33:49.540Z,0.67
2018-09-21T20:38:52.853Z,1.07
2018-09-21T20:43:56.186Z,0.70
2018-09-21T20:48:59.519Z,1.17
2018-09-21T20:54:02.839Z,1.10
2018-09-21T20:59:06.048Z,0.93
2018-09-21T21:04:09.342Z,0.97
2018-09-21T21:09:12.594Z,0.80
2018-09-21T21:14:16.006Z,0.83
2018-09-21T21:19:19.250Z,1.43
2018-09-21T21:24:22.536Z,1.60
2018-09-21T21:29:25.728Z,0.63
2018-09-21T21:34:28.973Z,1.23
2018-09-21T21:39:32.230Z,1.60
2018-09-21T21:44:36.568Z,1.17
2018-09-21T21:49:39.831Z,1.33
2018-09-21T21:54:43.066Z,1.20
2018-09-21T21:59:46.291Z,1.00
2018-09-21T22:04:49.546Z,1.00
2018-09-21T22:09:52.770Z,1.50
2018-09-21T22:14:56.065Z,1.47
2018-09-21T22:19:59.369Z,1.70
2018-09-21T22:25:02.574Z,1.23
2018-09-21T22:30:05.965Z,1.50
2018-09-21T22:35:09.198Z,1.63
2018-09-21T22:40:12.450Z,1.70
2018-09-21T22:45:15.741Z,1.97
2018-09-21T22:50:18.914Z,1.60
2018-09-21T22:55:22.150Z,1.73
2018-09-21T23:00:25.454Z,1.90
2018-09-21T23:05:28.702Z,2.10
2018-09-21T23:10:31.973Z,1.80
2018-09-21T23:15:35.214Z,1.80
2018-09-21T23:20:38.460Z,1.80
2018-09-21T23:25:41.688Z,1.77
2018-09-21T23:30:50.054Z,1.80
2018-09-21T23:35:53.254Z,1.77
2018-09-21T23:40:56.476Z,1.97
2018-09-21T23:45:59.755Z,2.30
2018-09-21T23:51:02.954Z,2.30
2018-09-21T23:56:06.282Z,1.93
